sensor_id;sensor_type;location;lat;lon;timestamp;P1;P2;P0
73825;PMS5003;64145;55.060;73.168;2022-11-20T00:01:09;0.00;0.00;0.00
73825;PMS5003;64145;55.060;73.168;2022-11-20T00:03:35;0.00;0.00;0.00
73825;PMS5003;64145;55.060;73.168;2022-11-20T00:06:07;0.00;0.00;0.00
73825;PMS5003;64145;55.060;73.168;2022-11-20T00:08:43;0.50;0.50;0.00
73825;PMS5003;64145;55.060;73.168;2022-11-20T00:11:20;0.00;0.00;0.00
73825;PMS5003;64145;55.060;73.168;2022-11-20T00:13:52;0.00;0.00;0.00
73825;PMS5003;64145;55.060;73.168;2022-11-20T00:16:19;0.00;0.00;0.00
73825;PMS5003;64145;55.060;73.168;2022-11-20T00:18:45;0.00;0.00;0.00
73825;PMS5003;64145;55.060;73.168;2022-11-20T00:21:22;0.50;0.25;0.00
73825;PMS5003;64145;55.060;73.168;2022-11-20T00:23:48;0.00;0.00;0.00
73825;PMS5003;64145;55.060;73.168;2022-11-20T00:26:15;0.00;0.00;0.00
73825;PMS5003;64145;55.060;73.168;2022-11-20T00:28:41;1.00;0.00;0.00
73825;PMS5003;64145;55.060;73.168;2022-11-20T00:31:09;0.00;0.00;0.00
73825;PMS5003;64145;55.060;73.168;2022-11-20T00:33:40;0.00;0.00;0.00
73825;PMS5003;64145;55.060;73.168;2022-11-20T00:36:07;1.00;0.00;0.00
73825;PMS5003;64145;55.060;73.168;2022-11-20T00:38:33;1.00;0.00;0.00
73825;PMS5003;64145;55.060;73.168;2022-11-20T00:41:12;0.00;0.00;0.00
73825;PMS5003;64145;55.060;73.168;2022-11-20T00:43:38;0.00;0.00;0.00
73825;PMS5003;64145;55.060;73.168;2022-11-20T00:46:15;0.00;0.00;0.00
73825;PMS5003;64145;55.060;73.168;2022-11-20T00:48:42;0.00;0.00;0.00
73825;PMS5003;64145;55.060;73.168;2022-11-20T00:51:19;0.00;0.00;0.00
73825;PMS5003;64145;55.060;73.168;2022-11-20T00:53:45;0.00;0.00;0.00
73825;PMS5003;64145;55.060;73.168;2022-11-20T00:56:16;0.00;0.00;0.00
73825;PMS5003;64145;55.060;73.168;2022-11-20T00:58:43;0.25;0.00;0.00
73825;PMS5003;64145;55.060;73.168;2022-11-20T01:01:15;1.00;0.00;0.00
73825;PMS5003;64145;55.060;73.168;2022-11-20T01:03:51;0.00;0.00;0.00
73825;PMS5003;64145;55.060;73.168;2022-11-20T01:06:30;0.00;0.00;0.00
73825;PMS5003;64145;55.060;73.168;2022-11-20T01:08:57;0.00;0.00;0.00
73825;PMS5003;64145;55.060;73.168;2022-11-20T01:11:24;0.00;0.00;0.00
73825;PMS5003;64145;55.060;73.168;2022-11-20T01:13:54;0.00;0.00;0.00
73825;PMS5003;64145;55.060;73.168;2022-11-20T01:16:26;0.00;0.00;0.00
73825;PMS5003;64145;55.060;73.168;2022-11-20T01:18:58;0.00;0.00;0.00
73825;PMS5003;64145;55.060;73.168;2022-11-20T01:21:28;0.00;0.00;0.00
73825;PMS5003;64145;55.060;73.168;2022-11-20T01:23:54;0.00;0.00;0.00
73825;PMS5003;64145;55.060;73.168;2022-11-20T01:26:29;1.00;0.00;0.00
73825;PMS5003;64145;55.060;73.168;2022-11-20T01:28:55;0.00;0.00;0.00
73825;PMS5003;64145;55.060;73.168;2022-11-20T01:31:33;0.00;0.00;0.00
73825;PMS5003;64145;55.060;73.168;2022-11-20T01:34:02;1.00;1.00;0.00
73825;PMS5003;64145;55.060;73.168;2022-11-20T01:36:28;0.00;0.00;0.00
73825;PMS5003;64145;55.060;73.168;2022-11-20T01:38:55;0.00;0.00;0.00
73825;PMS5003;64145;55.060;73.168;2022-11-20T01:41:21;0.25;0.00;0.00
73825;PMS5003;64145;55.060;73.168;2022-11-20T01:44:13;1.00;0.00;0.00
73825;PMS5003;64145;55.060;73.168;2022-11-20T01:46:42;1.00;0.00;0.00
73825;PMS5003;64145;55.060;73.168;2022-11-20T01:49:25;0.50;0.00;0.00
73825;PMS5003;64145;55.060;73.168;2022-11-20T01:51:57;0.00;0.00;0.00
73825;PMS5003;64145;55.060;73.168;2022-11-20T01:54:25;0.00;0.00;0.00
73825;PMS5003;64145;55.060;73.168;2022-11-20T01:56:55;0.00;0.00;0.00
73825;PMS5003;64145;55.060;73.168;2022-11-20T01:59:22;0.00;0.00;0.00
73825;PMS5003;64145;55.060;73.168;2022-11-20T02:01:49;1.00;0.00;0.00
73825;PMS5003;64145;55.060;73.168;2022-11-20T02:04:15;0.00;0.00;0.00
73825;PMS5003;64145;55.060;73.168;2022-11-20T02:06:53;0.00;0.00;0.00
73825;PMS5003;64145;55.060;73.168;2022-11-20T02:09:22;0.00;0.00;0.00
73825;PMS5003;64145;55.060;73.168;2022-11-20T02:11:57;0.00;0.00;0.00
73825;PMS5003;64145;55.060;73.168;2022-11-20T02:14:28;0.00;0.00;0.00
73825;PMS5003;64145;55.060;73.168;2022-11-20T02:16:58;0.00;0.00;0.00
73825;PMS5003;64145;55.060;73.168;2022-11-20T02:19:30;0.00;0.00;0.00
73825;PMS5003;64145;55.060;73.168;2022-11-20T02:24:26;0.00;0.00;0.00
73825;PMS5003;64145;55.060;73.168;2022-11-20T02:26:53;0.00;0.00;0.00
73825;PMS5003;64145;55.060;73.168;2022-11-20T02:31:56;0.00;0.00;0.00
73825;PMS5003;64145;55.060;73.168;2022-11-20T02:34:24;0.00;0.00;0.00
73825;PMS5003;64145;55.060;73.168;2022-11-20T02:36:50;0.00;0.00;0.00
73825;PMS5003;64145;55.060;73.168;2022-11-20T02:39:17;0.00;0.00;0.00
73825;PMS5003;64145;55.060;73.168;2022-11-20T02:41:44;0.50;0.50;0.00
73825;PMS5003;64145;55.060;73.168;2022-11-20T02:44:13;1.00;1.00;0.00
73825;PMS5003;64145;55.060;73.168;2022-11-20T02:46:39;1.00;1.00;0.00
73825;PMS5003;64145;55.060;73.168;2022-11-20T02:49:05;1.75;1.75;0.00
73825;PMS5003;64145;55.060;73.168;2022-11-20T02:51:31;4.00;3.67;1.00
73825;PMS5003;64145;55.060;73.168;2022-11-20T02:53:57;4.00;4.00;2.00
73825;PMS5003;64145;55.060;73.168;2022-11-20T02:56:33;1.00;1.00;1.00
73825;PMS5003;64145;55.060;73.168;2022-11-20T02:58:58;1.33;1.33;0.00
73825;PMS5003;64145;55.060;73.168;2022-11-20T03:01:24;3.00;2.00;0.00
73825;PMS5003;64145;55.060;73.168;2022-11-20T03:03:59;3.00;2.00;1.00
73825;PMS5003;64145;55.060;73.168;2022-11-20T03:06:27;3.00;2.25;1.00
73825;PMS5003;64145;55.060;73.168;2022-11-20T03:09:03;2.25;1.50;1.00
73825;PMS5003;64145;55.060;73.168;2022-11-20T03:11:28;3.00;3.00;1.00
73825;PMS5003;64145;55.060;73.168;2022-11-20T03:14:03;2.00;1.00;0.00
73825;PMS5003;64145;55.060;73.168;2022-11-20T03:16:30;1.25;0.25;0.00
73825;PMS5003;64145;55.060;73.168;2022-11-20T03:18:55;4.00;2.75;0.50
73825;PMS5003;64145;55.060;73.168;2022-11-20T03:21:21;7.33;6.67;3.33
73825;PMS5003;64145;55.060;73.168;2022-11-20T03:23:56;10.00;8.00;4.00
73825;PMS5003;64145;55.060;73.168;2022-11-20T03:26:32;8.00;6.00;3.00
73825;PMS5003;64145;55.060;73.168;2022-11-20T03:29:07;5.00;4.00;1.00
73825;PMS5003;64145;55.060;73.168;2022-11-20T03:31:35;4.00;4.00;1.00
73825;PMS5003;64145;55.060;73.168;2022-11-20T03:34:06;4.75;3.00;1.00
73825;PMS5003;64145;55.060;73.168;2022-11-20T03:36:32;3.00;3.00;1.00
73825;PMS5003;64145;55.060;73.168;2022-11-20T03:39:08;4.00;3.00;0.00
73825;PMS5003;64145;55.060;73.168;2022-11-20T03:41:37;6.67;5.33;3.00
73825;PMS5003;64145;55.060;73.168;2022-11-20T03:44:03;8.50;4.25;2.00
73825;PMS5003;64145;55.060;73.168;2022-11-20T03:46:29;6.25;4.00;1.00
73825;PMS5003;64145;55.060;73.168;2022-11-20T03:49:00;4.75;4.75;1.25
73825;PMS5003;64145;55.060;73.168;2022-11-20T03:51:33;5.00;5.00;1.33
73825;PMS5003;64145;55.060;73.168;2022-11-20T03:54:00;3.00;3.00;0.50
73825;PMS5003;64145;55.060;73.168;2022-11-20T03:56:31;2.00;1.00;0.00
73825;PMS5003;64145;55.060;73.168;2022-11-20T03:58:57;1.00;1.00;0.00
73825;PMS5003;64145;55.060;73.168;2022-11-20T04:01:29;1.00;1.00;0.00
73825;PMS5003;64145;55.060;73.168;2022-11-20T04:04:05;0.00;0.00;0.00
73825;PMS5003;64145;55.060;73.168;2022-11-20T04:06:36;0.75;0.75;0.00
73825;PMS5003;64145;55.060;73.168;2022-11-20T04:09:02;1.00;1.00;0.00
73825;PMS5003;64145;55.060;73.168;2022-11-20T04:11:31;1.00;1.00;0.00
73825;PMS5003;64145;55.060;73.168;2022-11-20T04:14:11;2.00;1.50;0.00
73825;PMS5003;64145;55.060;73.168;2022-11-20T04:16:37;3.00;2.00;0.00
73825;PMS5003;64145;55.060;73.168;2022-11-20T04:19:08;2.50;2.25;0.00
73825;PMS5003;64145;55.060;73.168;2022-11-20T04:21:35;2.00;1.25;0.00
73825;PMS5003;64145;55.060;73.168;2022-11-20T04:24:00;2.00;1.00;0.00
73825;PMS5003;64145;55.060;73.168;2022-11-20T04:26:31;1.00;1.00;0.00
73825;PMS5003;64145;55.060;73.168;2022-11-20T04:28:57;3.00;3.00;0.00
73825;PMS5003;64145;55.060;73.168;2022-11-20T04:31:26;3.75;3.00;0.00
73825;PMS5003;64145;55.060;73.168;2022-11-20T04:34:01;3.75;3.00;1.00
73825;PMS5003;64145;55.060;73.168;2022-11-20T04:36:27;5.00;3.00;1.00
73825;PMS5003;64145;55.060;73.168;2022-11-20T04:38:54;5.00;3.00;1.00
73825;PMS5003;64145;55.060;73.168;2022-11-20T04:41:21;2.00;2.00;1.00
73825;PMS5003;64145;55.060;73.168;2022-11-20T04:43:48;2.75;2.75;0.00
73825;PMS5003;64145;55.060;73.168;2022-11-20T04:46:14;3.00;3.00;0.00
73825;PMS5003;64145;55.060;73.168;2022-11-20T04:48:45;3.00;3.00;0.00
73825;PMS5003;64145;55.060;73.168;2022-11-20T04:51:20;1.00;1.00;0.00
73825;PMS5003;64145;55.060;73.168;2022-11-20T04:53:56;0.00;0.00;0.00
73825;PMS5003;64145;55.060;73.168;2022-11-20T04:56:21;0.00;0.00;0.00
73825;PMS5003;64145;55.060;73.168;2022-11-20T04:58:59;0.00;0.00;0.00
73825;PMS5003;64145;55.060;73.168;2022-11-20T05:01:25;0.00;0.00;0.00
73825;PMS5003;64145;55.060;73.168;2022-11-20T05:03:51;0.00;0.00;0.00
73825;PMS5003;64145;55.060;73.168;2022-11-20T05:06:21;0.00;0.00;0.00
73825;PMS5003;64145;55.060;73.168;2022-11-20T05:08:47;0.00;0.00;0.00
73825;PMS5003;64145;55.060;73.168;2022-11-20T05:11:16;0.00;0.00;0.00
73825;PMS5003;64145;55.060;73.168;2022-11-20T05:13:51;0.00;0.00;0.00
73825;PMS5003;64145;55.060;73.168;2022-11-20T05:16:18;0.00;0.00;0.00
73825;PMS5003;64145;55.060;73.168;2022-11-20T05:18:44;0.00;0.00;0.00
73825;PMS5003;64145;55.060;73.168;2022-11-20T05:21:14;0.00;0.00;0.00
73825;PMS5003;64145;55.060;73.168;2022-11-20T05:23:50;0.00;0.00;0.00
73825;PMS5003;64145;55.060;73.168;2022-11-20T05:26:24;0.00;0.00;0.00
73825;PMS5003;64145;55.060;73.168;2022-11-20T05:28:55;0.00;0.00;0.00
73825;PMS5003;64145;55.060;73.168;2022-11-20T05:31:21;0.00;0.00;0.00
73825;PMS5003;64145;55.060;73.168;2022-11-20T05:33:48;0.00;0.00;0.00
73825;PMS5003;64145;55.060;73.168;2022-11-20T05:36:23;0.00;0.00;0.00
73825;PMS5003;64145;55.060;73.168;2022-11-20T05:38:49;1.00;0.00;0.00
73825;PMS5003;64145;55.060;73.168;2022-11-20T05:41:15;1.00;1.00;0.00
73825;PMS5003;64145;55.060;73.168;2022-11-20T05:43:49;0.00;0.00;0.00
73825;PMS5003;64145;55.060;73.168;2022-11-20T05:46:16;0.00;0.00;0.00
73825;PMS5003;64145;55.060;73.168;2022-11-20T05:48:42;0.00;0.00;0.00
73825;PMS5003;64145;55.060;73.168;2022-11-20T05:51:14;0.00;0.00;0.00
73825;PMS5003;64145;55.060;73.168;2022-11-20T05:53:40;0.00;0.00;0.00
73825;PMS5003;64145;55.060;73.168;2022-11-20T05:56:07;0.00;0.00;0.00
73825;PMS5003;64145;55.060;73.168;2022-11-20T05:58:33;0.00;0.00;0.00
73825;PMS5003;64145;55.060;73.168;2022-11-20T06:01:08;0.00;0.00;0.00
73825;PMS5003;64145;55.060;73.168;2022-11-20T06:03:34;0.00;0.00;0.00
73825;PMS5003;64145;55.060;73.168;2022-11-20T06:06:09;0.00;0.00;0.00
73825;PMS5003;64145;55.060;73.168;2022-11-20T06:08:35;0.00;0.00;0.00
73825;PMS5003;64145;55.060;73.168;2022-11-20T06:11:09;0.00;0.00;0.00
73825;PMS5003;64145;55.060;73.168;2022-11-20T06:13:35;0.00;0.00;0.00
73825;PMS5003;64145;55.060;73.168;2022-11-20T06:16:01;0.00;0.00;0.00
73825;PMS5003;64145;55.060;73.168;2022-11-20T06:18:29;0.00;0.00;0.00
73825;PMS5003;64145;55.060;73.168;2022-11-20T06:20:59;0.00;0.00;0.00
73825;PMS5003;64145;55.060;73.168;2022-11-20T06:23:31;0.00;0.00;0.00
73825;PMS5003;64145;55.060;73.168;2022-11-20T06:26:07;0.00;0.00;0.00
73825;PMS5003;64145;55.060;73.168;2022-11-20T06:28:33;0.00;0.00;0.00
73825;PMS5003;64145;55.060;73.168;2022-11-20T06:31:10;0.00;0.00;0.00
73825;PMS5003;64145;55.060;73.168;2022-11-20T06:33:36;0.00;0.00;0.00
73825;PMS5003;64145;55.060;73.168;2022-11-20T06:36:02;0.00;0.00;0.00
73825;PMS5003;64145;55.060;73.168;2022-11-20T06:38:28;0.00;0.00;0.00
73825;PMS5003;64145;55.060;73.168;2022-11-20T06:40:58;0.00;0.00;0.00
73825;PMS5003;64145;55.060;73.168;2022-11-20T06:43:24;0.00;0.00;0.00
73825;PMS5003;64145;55.060;73.168;2022-11-20T06:45:54;0.00;0.00;0.00
73825;PMS5003;64145;55.060;73.168;2022-11-20T06:48:24;0.00;0.00;0.00
73825;PMS5003;64145;55.060;73.168;2022-11-20T06:50:50;0.00;0.00;0.00
73825;PMS5003;64145;55.060;73.168;2022-11-20T06:53:26;0.00;0.00;0.00
73825;PMS5003;64145;55.060;73.168;2022-11-20T06:56:01;0.00;0.00;0.00
73825;PMS5003;64145;55.060;73.168;2022-11-20T06:58:27;1.50;0.75;0.00
73825;PMS5003;64145;55.060;73.168;2022-11-20T07:00:54;0.00;0.00;0.00
73825;PMS5003;64145;55.060;73.168;2022-11-20T07:03:33;0.00;0.00;0.00
73825;PMS5003;64145;55.060;73.168;2022-11-20T07:06:05;0.00;0.00;0.00
73825;PMS5003;64145;55.060;73.168;2022-11-20T07:08:31;0.00;0.00;0.00
73825;PMS5003;64145;55.060;73.168;2022-11-20T07:10:58;0.00;0.00;0.00
73825;PMS5003;64145;55.060;73.168;2022-11-20T07:13:27;0.00;0.00;0.00
73825;PMS5003;64145;55.060;73.168;2022-11-20T07:15:59;0.00;0.00;0.00
73825;PMS5003;64145;55.060;73.168;2022-11-20T07:18:25;0.00;0.00;0.00
73825;PMS5003;64145;55.060;73.168;2022-11-20T07:20:50;0.00;0.00;0.00
73825;PMS5003;64145;55.060;73.168;2022-11-20T07:23:26;0.00;0.00;0.00
73825;PMS5003;64145;55.060;73.168;2022-11-20T07:25:52;0.00;0.00;0.00
73825;PMS5003;64145;55.060;73.168;2022-11-20T07:28:17;0.00;0.00;0.00
73825;PMS5003;64145;55.060;73.168;2022-11-20T07:30:48;0.00;0.00;0.00
73825;PMS5003;64145;55.060;73.168;2022-11-20T07:33:14;0.00;0.00;0.00
73825;PMS5003;64145;55.060;73.168;2022-11-20T07:35:39;0.00;0.00;0.00
73825;PMS5003;64145;55.060;73.168;2022-11-20T07:38:05;0.00;0.00;0.00
73825;PMS5003;64145;55.060;73.168;2022-11-20T07:40:31;0.00;0.00;0.00
73825;PMS5003;64145;55.060;73.168;2022-11-20T07:42:56;2.00;2.00;0.00
73825;PMS5003;64145;55.060;73.168;2022-11-20T07:45:22;0.00;0.00;0.00
73825;PMS5003;64145;55.060;73.168;2022-11-20T07:47:58;0.00;0.00;0.00
73825;PMS5003;64145;55.060;73.168;2022-11-20T07:50:24;0.00;0.00;0.00
73825;PMS5003;64145;55.060;73.168;2022-11-20T07:52:49;0.33;0.00;0.00
73825;PMS5003;64145;55.060;73.168;2022-11-20T07:55:26;0.00;0.00;0.00
73825;PMS5003;64145;55.060;73.168;2022-11-20T07:58:01;0.00;0.00;0.00
73825;PMS5003;64145;55.060;73.168;2022-11-20T08:00:31;0.00;0.00;0.00
73825;PMS5003;64145;55.060;73.168;2022-11-20T08:03:05;0.00;0.00;0.00
73825;PMS5003;64145;55.060;73.168;2022-11-20T08:05:36;0.00;0.00;0.00
73825;PMS5003;64145;55.060;73.168;2022-11-20T08:08:02;0.00;0.00;0.00
73825;PMS5003;64145;55.060;73.168;2022-11-20T08:10:28;0.00;0.00;0.00
73825;PMS5003;64145;55.060;73.168;2022-11-20T08:12:53;0.00;0.00;0.00
73825;PMS5003;64145;55.060;73.168;2022-11-20T08:15:38;0.00;0.00;0.00
73825;PMS5003;64145;55.060;73.168;2022-11-20T08:18:10;0.00;0.00;0.00
73825;PMS5003;64145;55.060;73.168;2022-11-20T08:20:38;0.00;0.00;0.00
73825;PMS5003;64145;55.060;73.168;2022-11-20T08:23:04;0.00;0.00;0.00
73825;PMS5003;64145;55.060;73.168;2022-11-20T08:25:31;0.00;0.00;0.00
73825;PMS5003;64145;55.060;73.168;2022-11-20T08:28:01;0.00;0.00;0.00
73825;PMS5003;64145;55.060;73.168;2022-11-20T08:30:27;0.00;0.00;0.00
73825;PMS5003;64145;55.060;73.168;2022-11-20T08:32:53;0.00;0.00;0.00
73825;PMS5003;64145;55.060;73.168;2022-11-20T08:35:32;0.00;0.00;0.00
73825;PMS5003;64145;55.060;73.168;2022-11-20T08:38:03;0.00;0.00;0.00
73825;PMS5003;64145;55.060;73.168;2022-11-20T08:40:29;0.00;0.00;0.00
73825;PMS5003;64145;55.060;73.168;2022-11-20T08:42:55;0.00;0.00;0.00
73825;PMS5003;64145;55.060;73.168;2022-11-20T08:45:20;1.33;0.00;0.00
73825;PMS5003;64145;55.060;73.168;2022-11-20T08:47:46;2.00;1.00;0.00
73825;PMS5003;64145;55.060;73.168;2022-11-20T08:50:12;0.00;0.00;0.00
73825;PMS5003;64145;55.060;73.168;2022-11-20T08:52:43;1.50;0.00;0.00
73825;PMS5003;64145;55.060;73.168;2022-11-20T08:55:09;0.00;0.00;0.00
73825;PMS5003;64145;55.060;73.168;2022-11-20T08:57:40;0.00;0.00;0.00
73825;PMS5003;64145;55.060;73.168;2022-11-20T09:00:06;3.33;1.67;0.00
73825;PMS5003;64145;55.060;73.168;2022-11-20T09:02:36;0.00;0.00;0.00
73825;PMS5003;64145;55.060;73.168;2022-11-20T09:05:02;4.00;3.67;1.00
73825;PMS5003;64145;55.060;73.168;2022-11-20T09:07:33;2.00;2.00;0.00
73825;PMS5003;64145;55.060;73.168;2022-11-20T09:09:58;0.00;0.00;0.00
73825;PMS5003;64145;55.060;73.168;2022-11-20T09:12:27;0.00;0.00;0.00
73825;PMS5003;64145;55.060;73.168;2022-11-20T09:14:53;2.00;2.00;0.00
73825;PMS5003;64145;55.060;73.168;2022-11-20T09:17:23;2.00;2.00;0.00
73825;PMS5003;64145;55.060;73.168;2022-11-20T09:19:49;1.00;0.00;0.00
73825;PMS5003;64145;55.060;73.168;2022-11-20T09:22:14;0.00;0.00;0.00
73825;PMS5003;64145;55.060;73.168;2022-11-20T09:24:40;0.00;0.00;0.00
73825;PMS5003;64145;55.060;73.168;2022-11-20T09:27:06;0.00;0.00;0.00
73825;PMS5003;64145;55.060;73.168;2022-11-20T09:29:32;1.00;0.00;0.00
73825;PMS5003;64145;55.060;73.168;2022-11-20T09:31:58;1.00;0.00;0.00
73825;PMS5003;64145;55.060;73.168;2022-11-20T09:34:23;0.00;0.00;0.00
73825;PMS5003;64145;55.060;73.168;2022-11-20T09:36:49;0.00;0.00;0.00
73825;PMS5003;64145;55.060;73.168;2022-11-20T09:39:14;0.00;0.00;0.00
73825;PMS5003;64145;55.060;73.168;2022-11-20T09:42:03;1.00;0.50;0.00
73825;PMS5003;64145;55.060;73.168;2022-11-20T09:49:32;1.00;1.00;0.00
73825;PMS5003;64145;55.060;73.168;2022-11-20T09:54:48;0.50;0.50;0.00
73825;PMS5003;64145;55.060;73.168;2022-11-20T09:57:35;0.00;0.00;0.00
73825;PMS5003;64145;55.060;73.168;2022-11-20T10:00:03;2.00;1.25;0.00
73825;PMS5003;64145;55.060;73.168;2022-11-20T10:02:45;14.75;12.50;6.25
73825;PMS5003;64145;55.060;73.168;2022-11-20T10:05:21;9.50;8.00;2.75
73825;PMS5003;64145;55.060;73.168;2022-11-20T10:07:50;1.50;1.50;0.00
73825;PMS5003;64145;55.060;73.168;2022-11-20T10:15:34;0.50;0.00;0.00
73825;PMS5003;64145;55.060;73.168;2022-11-20T10:18:09;1.00;0.00;0.00
73825;PMS5003;64145;55.060;73.168;2022-11-20T10:23:23;1.00;1.00;0.00
73825;PMS5003;64145;55.060;73.168;2022-11-20T10:28:45;0.00;0.00;0.00
73825;PMS5003;64145;55.060;73.168;2022-11-20T10:34:03;2.00;2.00;0.00
73825;PMS5003;64145;55.060;73.168;2022-11-20T10:36:33;2.00;2.00;0.00
73825;PMS5003;64145;55.060;73.168;2022-11-20T10:39:04;0.00;0.00;0.00
73825;PMS5003;64145;55.060;73.168;2022-11-20T10:41:36;0.00;0.00;0.00
73825;PMS5003;64145;55.060;73.168;2022-11-20T10:44:15;0.00;0.00;0.00
73825;PMS5003;64145;55.060;73.168;2022-11-20T10:47:01;0.00;0.00;0.00
73825;PMS5003;64145;55.060;73.168;2022-11-20T10:49:27;0.00;0.00;0.00
73825;PMS5003;64145;55.060;73.168;2022-11-20T10:51:57;0.00;0.00;0.00
73825;PMS5003;64145;55.060;73.168;2022-11-20T10:56:56;0.00;0.00;0.00
73825;PMS5003;64145;55.060;73.168;2022-11-20T10:59:40;0.00;0.00;0.00
73825;PMS5003;64145;55.060;73.168;2022-11-20T11:02:21;0.00;0.00;0.00
73825;PMS5003;64145;55.060;73.168;2022-11-20T11:04:51;0.00;0.00;0.00
73825;PMS5003;64145;55.060;73.168;2022-11-20T11:07:19;0.00;0.00;0.00
73825;PMS5003;64145;55.060;73.168;2022-11-20T11:09:48;0.00;0.00;0.00
73825;PMS5003;64145;55.060;73.168;2022-11-20T11:12:13;0.00;0.00;0.00
73825;PMS5003;64145;55.060;73.168;2022-11-20T11:14:43;0.00;0.00;0.00
73825;PMS5003;64145;55.060;73.168;2022-11-20T11:17:17;0.00;0.00;0.00
73825;PMS5003;64145;55.060;73.168;2022-11-20T11:19:43;0.00;0.00;0.00
73825;PMS5003;64145;55.060;73.168;2022-11-20T11:22:10;0.00;0.00;0.00
73825;PMS5003;64145;55.060;73.168;2022-11-20T11:24:53;0.00;0.00;0.00
73825;PMS5003;64145;55.060;73.168;2022-11-20T11:27:19;0.00;0.00;0.00
73825;PMS5003;64145;55.060;73.168;2022-11-20T11:29:45;0.00;0.00;0.00
73825;PMS5003;64145;55.060;73.168;2022-11-20T11:32:18;0.00;0.00;0.00
73825;PMS5003;64145;55.060;73.168;2022-11-20T11:35:00;0.00;0.00;0.00
73825;PMS5003;64145;55.060;73.168;2022-11-20T11:37:26;1.00;0.00;0.00
73825;PMS5003;64145;55.060;73.168;2022-11-20T11:40:00;0.00;0.00;0.00
73825;PMS5003;64145;55.060;73.168;2022-11-20T11:42:31;0.00;0.00;0.00
73825;PMS5003;64145;55.060;73.168;2022-11-20T11:44:58;0.00;0.00;0.00
73825;PMS5003;64145;55.060;73.168;2022-11-20T11:47:31;0.00;0.00;0.00
73825;PMS5003;64145;55.060;73.168;2022-11-20T11:52:45;7.00;6.00;1.75
73825;PMS5003;64145;55.060;73.168;2022-11-20T12:00:41;2.00;2.00;0.00
73825;PMS5003;64145;55.060;73.168;2022-11-20T12:05:43;5.33;4.00;1.00
73825;PMS5003;64145;55.060;73.168;2022-11-20T12:13:22;35.25;26.25;16.00
73825;PMS5003;64145;55.060;73.168;2022-11-20T12:15:50;30.00;23.00;14.00
73825;PMS5003;64145;55.060;73.168;2022-11-20T12:18:18;13.00;12.00;5.00
73825;PMS5003;64145;55.060;73.168;2022-11-20T12:23:35;1.75;0.00;0.00
73825;PMS5003;64145;55.060;73.168;2022-11-20T12:36:54;2.00;2.00;0.00
73825;PMS5003;64145;55.060;73.168;2022-11-20T12:39:41;0.50;0.25;0.00
73825;PMS5003;64145;55.060;73.168;2022-11-20T12:54:01;1.75;0.25;0.00
73825;PMS5003;64145;55.060;73.168;2022-11-20T12:59:27;2.50;2.00;0.75
73825;PMS5003;64145;55.060;73.168;2022-11-20T13:06:57;8.25;7.75;3.75
73825;PMS5003;64145;55.060;73.168;2022-11-20T13:09:33;6.25;4.25;0.75
73825;PMS5003;64145;55.060;73.168;2022-11-20T13:12:29;5.00;3.00;0.25
73825;PMS5003;64145;55.060;73.168;2022-11-20T13:15:14;4.00;3.75;0.50
73825;PMS5003;64145;55.060;73.168;2022-11-20T13:17:54;3.00;2.75;0.00
73825;PMS5003;64145;55.060;73.168;2022-11-20T13:20:21;1.00;1.00;0.00
73825;PMS5003;64145;55.060;73.168;2022-11-20T13:22:53;0.00;0.00;0.00
73825;PMS5003;64145;55.060;73.168;2022-11-20T13:25:33;0.00;0.00;0.00
73825;PMS5003;64145;55.060;73.168;2022-11-20T13:30:34;1.00;1.00;0.00
73825;PMS5003;64145;55.060;73.168;2022-11-20T13:33:05;0.00;0.00;0.00
73825;PMS5003;64145;55.060;73.168;2022-11-20T13:35:33;0.00;0.00;0.00
73825;PMS5003;64145;55.060;73.168;2022-11-20T13:38:12;0.25;0.00;0.00
73825;PMS5003;64145;55.060;73.168;2022-11-20T13:40:53;0.00;0.00;0.00
73825;PMS5003;64145;55.060;73.168;2022-11-20T13:43:40;0.00;0.00;0.00
73825;PMS5003;64145;55.060;73.168;2022-11-20T13:46:07;0.00;0.00;0.00
73825;PMS5003;64145;55.060;73.168;2022-11-20T13:48:34;2.00;0.00;0.00
73825;PMS5003;64145;55.060;73.168;2022-11-20T13:58:56;2.00;2.00;0.00
73825;PMS5003;64145;55.060;73.168;2022-11-20T14:01:34;2.00;1.00;0.00
73825;PMS5003;64145;55.060;73.168;2022-11-20T14:04:01;0.75;0.50;0.00
73825;PMS5003;64145;55.060;73.168;2022-11-20T14:06:32;3.00;2.00;0.00
73825;PMS5003;64145;55.060;73.168;2022-11-20T14:08:59;2.25;2.00;0.00
73825;PMS5003;64145;55.060;73.168;2022-11-20T14:11:26;2.00;2.00;0.00
73825;PMS5003;64145;55.060;73.168;2022-11-20T14:13:53;2.00;2.00;0.00
73825;PMS5003;64145;55.060;73.168;2022-11-20T14:16:20;3.00;2.00;0.00
73825;PMS5003;64145;55.060;73.168;2022-11-20T14:18:46;0.00;0.00;0.00
73825;PMS5003;64145;55.060;73.168;2022-11-20T14:21:11;1.00;1.00;0.00
73825;PMS5003;64145;55.060;73.168;2022-11-20T14:23:46;2.00;1.00;0.00
73825;PMS5003;64145;55.060;73.168;2022-11-20T14:26:12;0.00;0.00;0.00
73825;PMS5003;64145;55.060;73.168;2022-11-20T14:28:49;0.00;0.00;0.00
73825;PMS5003;64145;55.060;73.168;2022-11-20T14:31:34;0.00;0.00;0.00
73825;PMS5003;64145;55.060;73.168;2022-11-20T14:33:59;2.50;1.75;0.00
73825;PMS5003;64145;55.060;73.168;2022-11-20T14:36:27;2.00;1.50;0.00
73825;PMS5003;64145;55.060;73.168;2022-11-20T14:38:53;2.00;2.00;0.00
73825;PMS5003;64145;55.060;73.168;2022-11-20T14:41:20;5.00;4.00;0.00
73825;PMS5003;64145;55.060;73.168;2022-11-20T14:44:08;3.00;3.00;0.00
73825;PMS5003;64145;55.060;73.168;2022-11-20T14:46:31;4.00;3.25;1.00
73825;PMS5003;64145;55.060;73.168;2022-11-20T14:49:00;4.75;4.00;1.50
73825;PMS5003;64145;55.060;73.168;2022-11-20T14:51:30;5.75;5.50;1.00
73825;PMS5003;64145;55.060;73.168;2022-11-20T14:54:07;5.50;5.50;1.00
73825;PMS5003;64145;55.060;73.168;2022-11-20T14:56:33;2.75;2.00;0.00
73825;PMS5003;64145;55.060;73.168;2022-11-20T14:59:00;3.00;3.00;0.00
73825;PMS5003;64145;55.060;73.168;2022-11-20T15:01:29;1.75;1.00;0.00
73825;PMS5003;64145;55.060;73.168;2022-11-20T15:04:09;2.50;1.50;1.00
73825;PMS5003;64145;55.060;73.168;2022-11-20T15:06:49;1.00;1.00;0.00
73825;PMS5003;64145;55.060;73.168;2022-11-20T15:09:15;0.75;0.75;0.00
73825;PMS5003;64145;55.060;73.168;2022-11-20T15:11:49;3.25;3.00;0.00
73825;PMS5003;64145;55.060;73.168;2022-11-20T15:14:17;4.00;3.00;0.00
73825;PMS5003;64145;55.060;73.168;2022-11-20T15:16:42;2.00;2.00;0.00
73825;PMS5003;64145;55.060;73.168;2022-11-20T15:19:15;3.00;3.00;0.00
73825;PMS5003;64145;55.060;73.168;2022-11-20T15:21:42;1.00;0.75;0.00
73825;PMS5003;64145;55.060;73.168;2022-11-20T15:24:08;2.00;1.33;0.00
73825;PMS5003;64145;55.060;73.168;2022-11-20T15:26:34;2.75;1.00;0.00
73825;PMS5003;64145;55.060;73.168;2022-11-20T15:28:59;3.00;1.33;0.00
73825;PMS5003;64145;55.060;73.168;2022-11-20T15:31:25;3.00;3.00;0.00
73825;PMS5003;64145;55.060;73.168;2022-11-20T15:33:51;3.00;2.67;1.00
73825;PMS5003;64145;55.060;73.168;2022-11-20T15:36:16;0.33;0.00;0.00
73825;PMS5003;64145;55.060;73.168;2022-11-20T15:38:42;1.00;1.00;0.00
73825;PMS5003;64145;55.060;73.168;2022-11-20T15:41:07;3.00;3.00;0.00
73825;PMS5003;64145;55.060;73.168;2022-11-20T15:43:33;5.00;4.00;1.00
73825;PMS5003;64145;55.060;73.168;2022-11-20T15:46:00;6.00;5.00;2.00
73825;PMS5003;64145;55.060;73.168;2022-11-20T15:48:27;6.50;5.00;1.25
73825;PMS5003;64145;55.060;73.168;2022-11-20T15:50:57;9.50;8.50;3.25
73825;PMS5003;64145;55.060;73.168;2022-11-20T15:53:27;10.50;7.00;2.00